Terminal Aerodrome Forecast
Issued by NWS

Home | Current Version | Previous Version | Text Only | Print | Product List | Glossary On
Versions: 1 2 3 4 5 6 7 8 9 10 11 12 13 14
421
FTUS43 KDTX 282321
TAFDET
TAF
KDET 282321Z 2900/2924 18008KT P6SM BKN120
      TEMPO 2900/2901 P6SM -SHRA OVC100
     FM290600 19012KT P6SM SCT060 OVC120 WS015/24045KT
     FM291300 21015G25KT P6SM SCT050 BKN150
     FM291700 22018G26KT P6SM BKN045=

USA.gov is the U.S. government's official web portal to all federal, state and local government web resources and services.